createdAt,value
2023-02-16T00:01:01.398Z,101212.16
2023-02-16T00:03:33.489Z,101224.88
2023-02-16T00:06:05.637Z,101218.94
2023-02-16T00:08:37.952Z,101200.34
2023-02-16T00:11:35.678Z,101185.16
2023-02-16T00:14:10.280Z,101202.84
2023-02-16T00:16:42.961Z,101202.03
2023-02-16T00:19:25.388Z,101199.44
2023-02-16T00:21:59.641Z,101146.94
2023-02-16T00:24:32.330Z,101157.09
2023-02-16T00:27:13.397Z,101188.38
2023-02-16T00:29:45.996Z,101174.06
2023-02-16T00:32:18.172Z,101171.50
2023-02-16T00:34:50.173Z,101154.47
2023-02-16T00:37:22.201Z,101162.94
2023-02-16T00:39:54.184Z,101144.34
2023-02-16T00:42:32.603Z,101119.78
2023-02-16T00:45:05.472Z,101146.88
2023-02-16T00:47:43.234Z,101149.44
2023-02-16T00:50:30.313Z,101150.31
2023-02-16T00:53:05.294Z,101131.66
2023-02-16T00:55:39.545Z,101118.91
2023-02-16T00:58:31.260Z,101134.06
2023-02-16T01:01:14.894Z,101125.63
2023-02-16T01:03:47.131Z,101128.09
2023-02-16T01:06:37.512Z,101119.66
2023-02-16T01:09:37.412Z,101120.41
2023-02-16T01:12:17.473Z,101119.72
2023-02-16T01:14:53.769Z,101113.75
2023-02-16T01:17:25.755Z,101088.41
2023-02-16T01:19:57.719Z,101032.69
2023-02-16T01:22:33.682Z,101057.19
2023-02-16T01:25:06.155Z,101076.53
2023-02-16T01:27:39.522Z,101106.97
2023-02-16T01:30:15.750Z,101066.38
2023-02-16T01:32:51.936Z,101076.47
2023-02-16T01:35:34.687Z,101099.31
2023-02-16T01:38:07.125Z,101080.69
2023-02-16T01:40:43.638Z,101072.28
2023-02-16T01:43:36.038Z,101063.84
2023-02-16T01:46:37.332Z,101085.78
2023-02-16T01:49:18.890Z,101092.59
2023-02-16T01:52:15.697Z,101082.38
2023-02-16T01:55:00.666Z,101074.75
2023-02-16T01:57:39.459Z,101082.41
2023-02-16T02:00:24.422Z,101078.19
2023-02-16T02:03:35.471Z,101066.44
2023-02-16T02:06:18.666Z,101074.09
2023-02-16T02:09:02.462Z,101075.00
2023-02-16T02:11:42.152Z,101062.38
2023-02-16T02:14:22.608Z,101064.13
2023-02-16T02:17:01.560Z,101075.13
2023-02-16T02:20:02.792Z,101067.47
2023-02-16T02:23:31.910Z,101064.88
2023-02-16T02:26:09.890Z,101068.28
2023-02-16T02:28:57.180Z,101038.69
2023-02-16T02:31:42.535Z,101064.06
2023-02-16T02:34:42.508Z,100996.53
2023-02-16T02:37:34.635Z,101054.75
2023-02-16T02:40:06.434Z,101056.34
2023-02-16T02:42:56.901Z,101049.59
2023-02-16T02:45:34.553Z,101050.50
2023-02-16T02:48:07.222Z,101032.66
2023-02-16T02:51:04.150Z,101044.53
2023-02-16T02:53:48.390Z,101025.91
2023-02-16T02:56:59.449Z,101041.16
2023-02-16T02:59:53.542Z,101038.66
2023-02-16T03:02:26.583Z,101012.50
2023-02-16T03:05:00.252Z,101030.31
2023-02-16T03:07:48.933Z,101047.22
2023-02-16T03:10:46.354Z,101045.53
2023-02-16T03:13:24.286Z,101032.06
2023-02-16T03:15:58.178Z,101024.41
2023-02-16T03:18:52.278Z,101030.38
2023-02-16T03:21:45.052Z,101025.28
2023-02-16T03:24:45.767Z,100987.22
2023-02-16T03:27:49.922Z,101012.56
2023-02-16T03:30:23.760Z,101002.38
2023-02-16T03:32:55.960Z,100974.50
2023-02-16T03:35:29.237Z,100988.00
2023-02-16T03:38:01.442Z,101003.19
2023-02-16T03:40:35.836Z,100950.03
2023-02-16T03:43:09.380Z,100982.06
2023-02-16T03:45:43.824Z,100956.66
2023-02-16T03:48:15.962Z,100957.50
2023-02-16T03:50:47.970Z,100911.09
2023-02-16T03:53:20.070Z,100975.19
2023-02-16T03:55:52.020Z,100978.59
2023-02-16T03:58:25.655Z,100970.94
2023-02-16T04:00:59.295Z,100970.91
2023-02-16T04:03:31.362Z,100956.59
2023-02-16T04:06:03.427Z,100939.66
2023-02-16T04:08:35.565Z,100953.19
2023-02-16T04:11:27.646Z,100872.13
2023-02-16T04:13:59.619Z,100922.78
2023-02-16T04:16:31.720Z,100944.66
2023-02-16T04:19:03.859Z,100876.34
2023-02-16T04:21:35.828Z,100937.91
2023-02-16T04:24:07.954Z,100916.84
2023-02-16T04:26:40.072Z,100942.22
2023-02-16T04:29:12.084Z,100892.31
2023-02-16T04:31:44.216Z,100866.13
2023-02-16T04:34:16.532Z,100875.44
2023-02-16T04:36:48.525Z,100872.88
2023-02-16T04:39:21.178Z,100858.47
2023-02-16T04:41:53.255Z,100845.81
2023-02-16T04:44:25.402Z,100913.25
2023-02-16T04:46:57.848Z,100924.31
2023-02-16T04:49:29.859Z,100926.00
2023-02-16T04:52:04.239Z,100899.78
2023-02-16T04:54:36.229Z,100937.81
2023-02-16T04:57:08.538Z,100938.69
2023-02-16T04:59:40.520Z,100932.78
2023-02-16T05:02:12.611Z,100916.78
2023-02-16T05:04:44.734Z,100869.66
2023-02-16T05:07:16.770Z,100932.00
2023-02-16T05:09:48.765Z,100882.31
2023-02-16T05:12:39.874Z,100864.69
2023-02-16T05:15:11.868Z,100927.84
2023-02-16T05:17:44.072Z,100930.38
2023-02-16T05:20:16.125Z,100815.66
2023-02-16T05:22:48.146Z,100895.78
2023-02-16T05:25:20.318Z,100925.34
2023-02-16T05:27:52.335Z,100878.09
2023-02-16T05:30:24.409Z,100884.94
2023-02-16T05:32:56.580Z,100913.66
2023-02-16T05:35:28.622Z,100857.19
2023-02-16T05:38:00.648Z,100862.19
2023-02-16T05:40:32.796Z,100921.16
2023-02-16T05:43:04.802Z,100874.75
2023-02-16T05:45:39.034Z,100906.75
2023-02-16T05:48:11.047Z,100870.50
2023-02-16T05:50:43.183Z,100875.59
2023-02-16T05:53:15.240Z,100866.22
2023-02-16T05:55:47.217Z,100833.38
2023-02-16T05:58:19.218Z,100910.97
2023-02-16T06:00:51.270Z,100930.38
2023-02-16T06:03:23.267Z,100820.84
2023-02-16T06:05:57.598Z,100792.00
2023-02-16T06:08:30.775Z,100851.00
2023-02-16T06:11:03.178Z,100906.63
2023-02-16T06:13:36.616Z,100899.03
2023-02-16T06:16:08.702Z,100905.72
2023-02-16T06:18:41.253Z,100857.50
2023-02-16T06:21:13.990Z,100845.63
2023-02-16T06:23:46.036Z,100805.91
2023-02-16T06:26:18.759Z,100822.66
2023-02-16T06:28:50.932Z,100901.81
2023-02-16T06:31:24.295Z,100918.72
2023-02-16T06:33:57.333Z,100901.03
2023-02-16T06:36:29.398Z,100830.31
2023-02-16T06:39:01.438Z,100919.66
2023-02-16T06:41:38.216Z,100832.84
2023-02-16T06:44:15.023Z,100870.72
2023-02-16T06:46:48.584Z,100857.00
2023-02-16T06:49:21.639Z,100866.97
2023-02-16T06:51:53.838Z,100865.22
2023-02-16T06:54:25.860Z,100919.19
2023-02-16T06:56:57.849Z,100911.50
2023-02-16T06:59:29.866Z,100817.81
2023-02-16T07:02:01.824Z,100880.06
2023-02-16T07:04:33.732Z,100799.88
2023-02-16T07:07:05.876Z,100891.78
2023-02-16T07:09:37.898Z,100895.06
2023-02-16T07:12:09.887Z,100866.41
2023-02-16T07:14:43.870Z,100882.88
2023-02-16T07:17:16.193Z,100888.78
2023-02-16T07:19:48.128Z,100891.22
2023-02-16T07:22:20.241Z,100886.81
2023-02-16T07:24:52.255Z,100881.72
2023-02-16T07:27:26.852Z,100891.69
2023-02-16T07:29:58.865Z,100884.16
2023-02-16T07:32:31.015Z,100888.47
2023-02-16T07:35:02.949Z,100893.25
2023-02-16T07:37:34.884Z,100877.00
2023-02-16T07:40:07.598Z,100885.44
2023-02-16T07:42:39.704Z,100857.59
2023-02-16T07:45:11.716Z,100896.94
2023-02-16T07:47:43.764Z,100898.41
2023-02-16T07:50:16.941Z,100873.97
2023-02-16T07:52:48.904Z,100890.72
2023-02-16T07:55:20.868Z,100880.47
2023-02-16T07:57:57.212Z,100810.75
2023-02-16T08:00:29.165Z,100870.38
2023-02-16T08:03:01.586Z,100869.16
2023-02-16T08:05:34.612Z,100891.84
2023-02-16T08:08:06.912Z,100892.69
2023-02-16T08:10:38.867Z,100809.09
2023-02-16T08:13:10.862Z,100881.47
2023-02-16T08:15:44.621Z,100883.88
2023-02-16T08:18:16.620Z,100851.06
2023-02-16T08:21:03.419Z,100838.09
2023-02-16T08:23:36.058Z,100864.59
2023-02-16T08:26:10.367Z,100830.03
2023-02-16T08:28:46.287Z,100844.91
2023-02-16T08:31:20.823Z,100822.03
2023-02-16T08:33:54.401Z,100867.88
2023-02-16T08:36:38.644Z,100835.41
2023-02-16T08:39:17.490Z,100863.72
2023-02-16T08:41:53.796Z,100865.22
2023-02-16T08:44:27.066Z,100859.84
2023-02-16T08:47:01.306Z,100854.00
2023-02-16T08:49:33.285Z,100854.31
2023-02-16T08:52:05.804Z,100854.75
2023-02-16T08:54:37.742Z,100838.22
2023-02-16T08:57:09.823Z,100836.63
2023-02-16T08:59:41.839Z,100855.53
2023-02-16T09:02:13.817Z,100867.69
2023-02-16T09:04:47.846Z,100837.09
2023-02-16T09:07:21.732Z,100860.50
2023-02-16T09:09:53.760Z,100853.19
2023-02-16T09:12:25.925Z,100815.97
2023-02-16T09:14:57.883Z,100868.16
2023-02-16T09:17:29.933Z,100869.84
2023-02-16T09:20:02.481Z,100857.41
2023-02-16T09:22:34.682Z,100864.41
2023-02-16T09:25:08.603Z,100857.34
2023-02-16T09:27:40.565Z,100832.34
2023-02-16T09:30:12.903Z,100836.69
2023-02-16T09:32:45.480Z,100854.41
2023-02-16T09:35:17.593Z,100846.97
2023-02-16T09:37:50.278Z,100841.06
2023-02-16T09:40:22.257Z,100846.53
2023-02-16T09:43:03.372Z,100858.69
2023-02-16T09:45:46.335Z,100852.91
2023-02-16T09:48:34.644Z,100840.66
2023-02-16T09:51:09.468Z,100856.03
2023-02-16T09:53:45.480Z,100833.50
2023-02-16T09:56:35.462Z,100845.34
2023-02-16T09:59:26.061Z,100840.94
2023-02-16T10:02:26.777Z,100841.69
2023-02-16T10:05:08.758Z,100835.22
2023-02-16T10:08:07.308Z,100835.06
2023-02-16T10:10:48.285Z,100847.44
2023-02-16T10:13:38.155Z,100822.44
2023-02-16T10:16:18.924Z,100842.03
2023-02-16T10:18:55.372Z,100819.50
2023-02-16T10:21:31.694Z,100802.53
2023-02-16T10:24:09.083Z,100818.16
2023-02-16T10:27:08.620Z,100826.50
2023-02-16T10:29:40.837Z,100812.81
2023-02-16T10:32:43.727Z,100814.31
2023-02-16T10:35:20.939Z,100807.88
2023-02-16T10:38:07.893Z,100822.72
2023-02-16T10:40:51.256Z,100808.53
2023-02-16T10:43:39.190Z,100821.41
2023-02-16T10:46:15.722Z,100789.69
2023-02-16T10:48:48.844Z,100820.31
2023-02-16T10:51:25.559Z,100784.69
2023-02-16T10:54:02.444Z,100807.75
2023-02-16T10:57:01.534Z,100814.22
2023-02-16T10:59:42.231Z,100780.72
2023-02-16T11:02:35.725Z,100798.84
2023-02-16T11:05:26.533Z,100795.50
2023-02-16T11:08:01.958Z,100790.81
2023-02-16T11:10:49.104Z,100787.72
2023-02-16T11:13:34.948Z,100782.91
2023-02-16T11:16:12.431Z,100767.38
2023-02-16T11:18:50.035Z,100767.53
2023-02-16T11:21:22.169Z,100746.34
2023-02-16T11:24:02.504Z,100772.09
2023-02-16T11:26:34.501Z,100754.06
2023-02-16T11:29:20.673Z,100758.41
2023-02-16T11:31:52.739Z,100748.16
2023-02-16T11:34:37.192Z,100754.84
2023-02-16T11:37:27.079Z,100760.50
2023-02-16T11:40:03.534Z,100757.38
2023-02-16T11:42:44.238Z,100719.66
2023-02-16T11:45:35.693Z,100754.72
2023-02-16T11:48:25.322Z,100751.25
2023-02-16T11:51:07.213Z,100752.69
2023-02-16T11:53:43.788Z,100719.59
2023-02-16T11:56:27.540Z,100751.03
2023-02-16T11:59:16.325Z,100738.84
2023-02-16T12:01:54.089Z,100744.53
2023-02-16T12:04:47.976Z,100743.88
2023-02-16T12:07:27.344Z,100742.38
2023-02-16T12:10:29.223Z,100737.31
2023-02-16T12:13:04.413Z,100748.09
2023-02-16T12:15:47.290Z,100741.22
2023-02-16T12:18:51.469Z,100736.06
2023-02-16T12:21:44.146Z,100735.09
2023-02-16T12:24:37.375Z,100733.00
2023-02-16T12:27:22.485Z,100737.09
2023-02-16T12:30:20.368Z,100737.03
2023-02-16T12:33:20.972Z,100733.94
2023-02-16T12:36:11.805Z,100724.19
2023-02-16T12:39:02.485Z,100725.63
2023-02-16T12:41:46.172Z,100723.66
2023-02-16T12:44:42.347Z,100723.56
2023-02-16T12:47:27.114Z,100709.91
2023-02-16T12:50:08.255Z,100698.00
2023-02-16T12:52:58.194Z,100712.19
2023-02-16T12:55:38.624Z,100713.31
2023-02-16T12:58:29.322Z,100717.97
2023-02-16T13:01:09.330Z,100711.34
2023-02-16T13:04:07.798Z,100715.31
2023-02-16T13:07:00.343Z,100699.94
2023-02-16T13:09:58.898Z,100677.03
2023-02-16T13:12:42.593Z,100705.66
2023-02-16T13:15:23.172Z,100696.63
2023-02-16T13:18:03.464Z,100679.91
2023-02-16T13:20:40.049Z,100676.25
2023-02-16T13:23:31.376Z,100717.03
2023-02-16T13:26:26.819Z,100702.09
2023-02-16T13:29:11.321Z,100709.06
2023-02-16T13:35:36.007Z,100708.50
2023-02-16T13:38:23.415Z,100702.41
2023-02-16T13:41:12.067Z,100706.47
2023-02-16T13:43:48.348Z,100703.28
2023-02-16T13:46:28.931Z,100711.47
2023-02-16T13:49:02.627Z,100689.41
2023-02-16T13:51:44.558Z,100693.06
2023-02-16T13:54:32.034Z,100683.88
2023-02-16T13:57:04.844Z,100700.41
2023-02-16T13:59:37.039Z,100702.03
2023-02-16T14:02:13.489Z,100697.38
2023-02-16T14:04:51.575Z,100694.94
2023-02-16T14:07:32.984Z,100673.16
2023-02-16T14:10:06.117Z,100685.00
2023-02-16T14:12:39.892Z,100685.00
2023-02-16T14:15:20.828Z,100645.22
2023-02-16T14:17:52.802Z,100657.66
2023-02-16T14:20:29.433Z,100684.78
2023-02-16T14:23:01.696Z,100684.78
2023-02-16T14:25:37.900Z,100687.34
2023-02-16T14:28:22.027Z,100685.44
2023-02-16T14:30:57.269Z,100686.09
2023-02-16T14:33:50.513Z,100682.91
2023-02-16T14:36:27.481Z,100671.31
2023-02-16T14:39:02.466Z,100686.53
2023-02-16T14:41:37.081Z,100664.66
2023-02-16T14:44:40.661Z,100684.34
2023-02-16T14:47:36.246Z,100665.69
2023-02-16T14:50:21.880Z,100677.47
2023-02-16T14:53:16.799Z,100670.53
2023-02-16T14:56:42.750Z,100678.19
2023-02-16T14:59:28.517Z,100664.28
2023-02-16T15:02:00.851Z,100686.06
2023-02-16T15:04:35.384Z,100651.16
2023-02-16T15:07:08.015Z,100658.34
2023-02-16T15:09:42.459Z,100687.75
2023-02-16T15:12:24.545Z,100676.81
2023-02-16T15:15:03.822Z,100642.88
2023-02-16T15:17:40.601Z,100678.97
2023-02-16T15:20:25.380Z,100676.81
2023-02-16T15:23:00.133Z,100680.56
2023-02-16T15:25:36.235Z,100682.09
2023-02-16T15:28:11.306Z,100675.34
2023-02-16T15:30:59.116Z,100675.78
2023-02-16T15:33:43.609Z,100674.78
2023-02-16T15:36:31.931Z,100667.38
2023-02-16T15:39:09.428Z,100683.53
2023-02-16T15:41:46.000Z,100617.03
2023-02-16T15:44:36.161Z,100686.69
2023-02-16T15:47:21.004Z,100690.31
2023-02-16T15:49:54.348Z,100689.59
2023-02-16T15:52:38.086Z,100682.50
2023-02-16T15:55:13.318Z,100659.91
2023-02-16T15:57:46.261Z,100675.25
2023-02-16T16:00:21.901Z,100679.72
2023-02-16T16:02:58.658Z,100664.28
2023-02-16T16:05:35.951Z,100677.09
2023-02-16T16:08:13.219Z,100678.53
2023-02-16T16:10:46.768Z,100648.44
2023-02-16T16:13:23.467Z,100667.03
2023-02-16T16:16:02.030Z,100632.22
2023-02-16T16:18:48.244Z,100674.16
2023-02-16T16:21:34.471Z,100679.72
2023-02-16T16:24:11.079Z,100654.38
2023-02-16T16:26:59.125Z,100682.06
2023-02-16T16:29:42.822Z,100669.66
2023-02-16T16:32:29.093Z,100667.81
2023-02-16T16:35:01.113Z,100664.78
2023-02-16T16:37:37.067Z,100670.88
2023-02-16T16:40:22.890Z,100638.25
2023-02-16T16:43:04.016Z,100664.09
2023-02-16T16:45:43.461Z,100661.81
2023-02-16T16:48:26.049Z,100668.59
2023-02-16T16:51:24.577Z,100664.41
2023-02-16T16:54:39.968Z,100663.41
2023-02-16T16:57:19.027Z,100658.53
2023-02-16T16:59:51.539Z,100623.03
2023-02-16T17:02:23.465Z,100653.56
2023-02-16T17:04:55.394Z,100625.00
2023-02-16T17:07:27.308Z,100624.06
2023-02-16T17:10:00.059Z,100610.84
2023-02-16T17:12:32.711Z,100640.88
2023-02-16T17:15:08.153Z,100653.63
2023-02-16T17:17:40.291Z,100639.47
2023-02-16T17:20:15.239Z,100646.16
2023-02-16T17:22:47.370Z,100635.25
2023-02-16T17:25:19.647Z,100629.59
2023-02-16T17:27:51.657Z,100646.63
2023-02-16T17:30:23.833Z,100638.31
2023-02-16T17:32:55.993Z,100593.84
2023-02-16T17:35:28.761Z,100636.22
2023-02-16T17:38:19.980Z,100648.16
2023-02-16T17:40:55.495Z,100654.84
2023-02-16T17:43:28.151Z,100660.03
2023-02-16T17:46:05.121Z,100650.81
2023-02-16T17:48:37.520Z,100660.31
2023-02-16T17:51:15.687Z,100644.22
2023-02-16T17:53:47.732Z,100638.59
2023-02-16T17:56:22.465Z,100642.16
2023-02-16T17:58:54.478Z,100577.78
2023-02-16T18:01:26.546Z,100627.22
2023-02-16T18:03:59.900Z,100629.94
2023-02-16T18:06:32.010Z,100634.19
2023-02-16T18:09:04.511Z,100617.78
2023-02-16T18:11:36.492Z,100639.63
2023-02-16T18:14:08.520Z,100641.38
2023-02-16T18:16:40.779Z,100634.63
2023-02-16T18:19:15.508Z,100621.16
2023-02-16T18:21:47.470Z,100622.03
2023-02-16T18:24:22.334Z,100588.59
2023-02-16T18:26:55.824Z,100627.16
2023-02-16T18:29:27.752Z,100607.16
2023-02-16T18:31:59.731Z,100638.50
2023-02-16T18:34:33.207Z,100642.53
2023-02-16T18:37:05.232Z,100635.91
2023-02-16T18:39:37.181Z,100636.84
2023-02-16T18:42:10.300Z,100636.84
2023-02-16T18:44:42.345Z,100634.50
2023-02-16T18:47:14.910Z,100632.78
2023-02-16T18:49:49.417Z,100591.16
2023-02-16T18:52:21.512Z,100614.31
2023-02-16T18:54:56.595Z,100642.84
2023-02-16T18:57:28.588Z,100622.00
2023-02-16T19:00:00.556Z,100619.63
2023-02-16T19:02:32.640Z,100640.66
2023-02-16T19:05:06.225Z,100645.78
2023-02-16T19:07:38.208Z,100636.81
2023-02-16T19:10:10.896Z,100625.84
2023-02-16T19:12:42.776Z,100639.47
2023-02-16T19:15:14.724Z,100647.03
2023-02-16T19:17:46.747Z,100621.25
2023-02-16T19:20:19.718Z,100640.13
2023-02-16T19:22:52.408Z,100649.59
2023-02-16T19:25:24.421Z,100607.44
2023-02-16T19:27:56.436Z,100611.63
2023-02-16T19:30:28.541Z,100645.41
2023-02-16T19:33:00.870Z,100643.94
2023-02-16T19:35:32.905Z,100634.72
2023-02-16T19:38:04.881Z,100559.94
2023-02-16T19:40:38.808Z,100635.38
2023-02-16T19:43:10.770Z,100633.69
2023-02-16T19:45:43.367Z,100572.34
2023-02-16T19:48:15.307Z,100538.00
2023-02-16T19:50:47.294Z,100639.28
2023-02-16T19:53:19.281Z,100642.75
2023-02-16T19:55:52.769Z,100626.78
2023-02-16T19:58:26.787Z,100626.00
2023-02-16T20:00:58.785Z,100605.06
2023-02-16T20:03:30.973Z,100631.91
2023-02-16T20:06:40.725Z,100629.28
2023-02-16T20:09:13.671Z,100619.25
2023-02-16T20:11:46.317Z,100631.84
2023-02-16T20:14:18.486Z,100613.50
2023-02-16T20:16:52.089Z,100616.97
2023-02-16T20:19:24.251Z,100623.59
2023-02-16T20:21:56.402Z,100621.13
2023-02-16T20:24:28.444Z,100580.91
2023-02-16T20:27:04.686Z,100543.88
2023-02-16T20:29:36.687Z,100632.84
2023-02-16T20:32:08.731Z,100620.25
2023-02-16T20:34:40.884Z,100625.38
2023-02-16T20:37:12.917Z,100615.16
2023-02-16T20:39:45.596Z,100615.84
2023-02-16T20:42:17.530Z,100612.06
2023-02-16T20:44:49.453Z,100612.81
2023-02-16T20:47:21.413Z,100621.34
2023-02-16T20:49:53.614Z,100623.72
2023-02-16T20:52:25.541Z,100602.72
2023-02-16T20:54:57.515Z,100604.59
2023-02-16T20:57:29.495Z,100616.28
2023-02-16T21:00:02.551Z,100597.78
2023-02-16T21:02:34.668Z,100631.41
2023-02-16T21:05:08.873Z,100630.72
2023-02-16T21:07:40.952Z,100621.47
2023-02-16T21:10:15.438Z,100634.91
2023-02-16T21:12:47.406Z,100629.78
2023-02-16T21:15:19.459Z,100595.38
2023-02-16T21:17:51.424Z,100581.94
2023-02-16T21:20:23.495Z,100614.63
2023-02-16T21:22:55.488Z,100596.13
2023-02-16T21:25:27.461Z,100565.28
2023-02-16T21:27:59.409Z,100614.00
2023-02-16T21:30:31.547Z,100628.28
2023-02-16T21:33:03.517Z,100621.09
2023-02-16T21:35:35.819Z,100629.53
2023-02-16T21:38:07.695Z,100610.31
2023-02-16T21:40:58.144Z,100601.97
2023-02-16T21:43:30.229Z,100602.88
2023-02-16T21:46:02.292Z,100613.63
2023-02-16T21:48:50.439Z,100613.63
2023-02-16T21:51:25.876Z,100611.84
2023-02-16T21:53:58.309Z,100618.59
2023-02-16T21:56:44.125Z,100615.22
2023-02-16T21:59:18.205Z,100614.34
2023-02-16T22:01:51.703Z,100613.63
2023-02-16T22:04:23.757Z,100575.78
2023-02-16T22:06:56.352Z,100607.16
2023-02-16T22:09:28.213Z,100586.69
2023-02-16T22:12:00.196Z,100595.91
2023-02-16T22:14:33.643Z,100610.97
2023-02-16T22:17:07.957Z,100597.56
2023-02-16T22:19:39.921Z,100602.91
2023-02-16T22:22:11.888Z,100597.22
2023-02-16T22:24:44.043Z,100616.41
2023-02-16T22:27:16.134Z,100608.94
2023-02-16T22:29:48.113Z,100591.41
2023-02-16T22:32:20.242Z,100619.91
2023-02-16T22:34:54.397Z,100613.13
2023-02-16T22:37:26.417Z,100618.25
2023-02-16T22:39:58.333Z,100620.06
2023-02-16T22:42:30.375Z,100606.56
2023-02-16T22:45:03.409Z,100625.94
2023-02-16T22:47:35.401Z,100608.16
2023-02-16T22:50:07.849Z,100622.47
2023-02-16T22:52:39.834Z,100605.63
2023-02-16T22:55:11.849Z,100624.25
2023-02-16T22:57:43.794Z,100617.38
2023-02-16T23:00:17.480Z,100613.94
2023-02-16T23:02:49.447Z,100614.06
2023-02-16T23:05:21.394Z,100582.75
2023-02-16T23:07:53.366Z,100601.22
2023-02-16T23:10:25.298Z,100592.06
2023-02-16T23:12:57.259Z,100580.47
2023-02-16T23:15:29.211Z,100617.47
2023-02-16T23:18:01.224Z,100590.69
2023-02-16T23:20:33.484Z,100603.44
2023-02-16T23:23:05.715Z,100594.81
2023-02-16T23:25:37.680Z,100590.69
2023-02-16T23:28:11.345Z,100511.03
2023-02-16T23:30:45.085Z,100563.03
2023-02-16T23:33:17.135Z,100587.25
2023-02-16T23:35:49.103Z,100575.50
2023-02-16T23:38:21.463Z,100610.78
2023-02-16T23:41:04.225Z,100609.09
2023-02-16T23:43:36.194Z,100610.78
2023-02-16T23:46:09.153Z,100548.81
2023-02-16T23:48:41.362Z,100600.72
2023-02-16T23:51:13.460Z,100572.97
2023-02-16T23:53:45.441Z,100598.16
2023-02-16T23:56:20.617Z,100511.69
2023-02-16T23:58:56.263Z,100581.38
